Nearby METAR Reports

 

KSFO - San Francisco, California, USA
Distance from station: NNW 8km
Updated: Fri, 20-Oct-2017 8:56pm PDT
Few Clouds
Few Clouds
 Wind from W
Wind: W 20 mph , 31 km/h
Temperature: 55°F , 13°C
Dew Point: 48°F , 9°C
Humidity: 77%
Barometer: 30.14 inHg , 1020.7 hPa
Clouds: Few Clouds
Visibility: 10 miles , 16 km
Cloud details: Few Clouds 800 ft
Few Clouds 20000 ft
2017/10/21 03:56 KSFO 210356Z 28017KT 10SM FEW008 FEW200 13/09 A3014 RMK AO2 PK WND 27027/0329 SLP206 T01330094
KSQL - San Carlos Airpo, California, USA
Distance from station: ESE 8km
Updated: Fri, 20-Oct-2017 9:15pm PDT
Clear
Clear
 Wind from WNW
Wind: WNW 8 mph , 13 km/h
Temperature: 55°F , 13°C
Dew Point: 46°F , 8°C
Humidity: 72%
Barometer: 30.16 inHg , 1021.3 hPa
Clouds: Clear
Visibility: 10 miles , 16 km
2017/10/21 04:15 KSQL 210415Z AUTO 29007KT 10SM CLR 13/08 A3016 RMK AO2
 
KHAF - Half Moon Bay, California, USA
Distance from station: WSW 15km
Updated: Fri, 20-Oct-2017 9:15pm PDT
Mist, Mostly cloudy
Mist, Mostly cloudy
 Wind from NW
Wind: NW 13 mph , 20 km/h
Temperature: 54°F , 12°C
Dew Point: 50°F , 10°C
Humidity: 88%
Barometer: 30.12 inHg , 1020 hPa
Summary: Mist
Clouds: Mostly cloudy
Visibility: 5 miles , 8 km
Cloud details: Mostly cloudy 300 ft
2017/10/21 04:15 KHAF 210415Z AUTO 32011KT 5SM BR BKN003 12/10 A3012 RMK AO2
KOAK - Oakland, California, USA
Distance from station: NNE 21km
Updated: Fri, 20-Oct-2017 8:53pm PDT
Few Clouds
Few Clouds
 Wind from WNW
Wind: WNW 15 mph , 24 km/h
Temperature: 55°F , 13°C
Dew Point: 50°F , 10°C
Humidity: 82%
Barometer: 30.15 inHg , 1021 hPa
Clouds: Few Clouds
Visibility: 10 miles , 16 km
Cloud details: Few Clouds 20000 ft
2017/10/21 03:53 KOAK 210353Z 29013KT 10SM FEW200 13/10 A3015 RMK AO2 SLP208 T01330100
 
KPAO - Palo Alto, California, USA
Distance from station: ESE 21km
Updated: Fri, 20-Oct-2017 8:47pm PDT
Partly cloudy
Partly cloudy
 Wind from W
Wind: W 14 mph , 22 km/h
Temperature: 55°F , 13°C
Dew Point: 46°F , 8°C
Humidity: 72%
Barometer: 30.14 inHg , 1020.7 hPa
Clouds: Partly cloudy
Visibility: 10 miles , 16 km
Cloud details: Few Clouds 4000 ft
Partly cloudy 12000 ft
2017/10/21 03:47 KPAO 210347Z 28012KT 10SM FEW040 SCT120 13/08 A3014
KHWD - Hayward, California, USA
Distance from station: NE 23km
Updated: Fri, 20-Oct-2017 8:54pm PDT
Clear
Clear
 Wind from NW
Wind: NW 12 mph , 19 km/h
Temperature: 55°F , 13°C
Dew Point: 46°F , 8°C
Humidity: 72%
Barometer: 30.14 inHg , 1020.7 hPa
Clouds: Clear
Visibility: 10 miles , 16 km
2017/10/21 03:54 KHWD 210354Z 31010KT 10SM CLR 13/08 A3014 RMK AO2 SLP217 T01330078 PNO
 
KNUQ - Moffett Nas/Mtn, California, USA
Distance from station: ESE 30km
Updated: Fri, 20-Oct-2017 8:56pm PDT
Clear
Clear
 Wind from varies
Wind: varies 3 mph , 6 km/h
Temperature: 55°F , 13°C
Dew Point: 45°F , 7°C
Humidity: 67%
Barometer: 30.16 inHg , 1021.3 hPa
Clouds: Clear
Visibility: 10 miles , 16 km
2017/10/21 03:56 KNUQ 210356Z VRB03KT 10SM CLR 13/07 A3016 RMK AO2 SLP215 T01280067
KSJC - San Jose, California, USA
Distance from station: ESE 42km
Updated: Fri, 20-Oct-2017 8:53pm PDT
Few Clouds
Few Clouds
 Wind from WNW
Wind: WNW 13 mph , 20 km/h
Temperature: 55°F , 13°C
Dew Point: 45°F , 7°C
Humidity: 67%
Barometer: 30.15 inHg , 1021 hPa
Clouds: Few Clouds
Visibility: 10 miles , 16 km
Cloud details: Few Clouds 4000 ft
2017/10/21 03:53 KSJC 210353Z 30011KT 10SM FEW040 13/07 A3015 RMK AO2 SLP208 T01330072
 
KLVK - Livermore, California, USA
Distance from station: ENE 49km
Updated: Fri, 20-Oct-2017 8:53pm PDT
Clear
Clear
 Wind from SSW
Wind: SSW 3 mph , 6 km/h
Temperature: 54°F , 12°C
Dew Point: 46°F , 8°C
Humidity: 77%
Barometer: 30.13 inHg , 1020.3 hPa
Clouds: Clear
Visibility: 10 miles , 16 km
2017/10/21 03:53 KLVK 210353Z 21003KT 10SM CLR 12/08 A3013 RMK AO2 SLP203 T01170083
KRHV - San Jose/Reid, California, USA
Distance from station: ESE 53km
Updated: Fri, 20-Oct-2017 8:47pm PDT
Few Clouds
Few Clouds
 Wind from NNW
Wind: NNW 12 mph , 19 km/h
Temperature: 57°F , 14°C
Dew Point: 46°F , 8°C
Humidity: 67%
Barometer: 30.18 inHg , 1022 hPa
Clouds: Few Clouds
Visibility: 10 miles , 16 km
Cloud details: Few Clouds 4000 ft
2017/10/21 03:47 KRHV 210347Z 33010KT 10SM FEW040 14/08 A3018
 
KCCR - Concord, California, USA
Distance from station: NNE 56km
Updated: Fri, 20-Oct-2017 8:53pm PDT
Clear
Clear
 Wind from WSW
Wind: WSW 10 mph , 17 km/h
Temperature: 57°F , 14°C
Dew Point: 46°F , 8°C
Humidity: 67%
Barometer: 30.13 inHg , 1020.3 hPa
Clouds: Clear
Visibility: 10 miles , 16 km
2017/10/21 03:53 KCCR 210353Z 24009KT 10SM CLR 14/08 A3013 RMK AO2 SLP190 T01390078
KDVO - Novato/Gnoss Fld, California, USA
Distance from station: NNW 70km
Updated: Fri, 20-Oct-2017 9:15pm PDT
Clear
Clear
 Wind from W
Wind: W 10 mph , 17 km/h
Temperature: 55°F , 13°C
Dew Point: 45°F , 7°C
Humidity: 67%
Barometer: 30.15 inHg , 1021 hPa
Clouds: Clear
Visibility: 10 miles , 16 km
2017/10/21 04:15 KDVO 210415Z AUTO 28009KT 10SM CLR 13/07 A3015 RMK AO2
 
KAPC - Napa, California, USA
Distance from station: N 73km
Updated: Fri, 20-Oct-2017 8:54pm PDT
Clear
Clear
 Wind from W
Wind: W 10 mph , 17 km/h
Temperature: 52°F , 11°C
Dew Point: 46°F , 8°C
Humidity: 82%
Barometer: 30.13 inHg , 1020.3 hPa
Clouds: Clear
Visibility: 10 miles , 16 km
2017/10/21 03:54 KAPC 210354Z AUTO 28009KT 10SM CLR 11/08 A3013 RMK AO2 SLP194 T01110078